sensor_id;sensor_type;location;lat;lon;timestamp;P1;durP1;ratioP1;P2;durP2;ratioP2
26474;SDS011;14161;52.270;10.334;2023-08-17T00:01:50;4.15;;;1.30;;
26474;SDS011;14161;52.270;10.334;2023-08-17T00:04:15;7.18;;;1.67;;
26474;SDS011;14161;52.270;10.334;2023-08-17T00:06:41;1.85;;;1.15;;
26474;SDS011;14161;52.270;10.334;2023-08-17T00:09:07;2.45;;;1.40;;
26474;SDS011;14161;52.270;10.334;2023-08-17T00:11:33;2.85;;;1.38;;
26474;SDS011;14161;52.270;10.334;2023-08-17T00:13:58;1.45;;;1.17;;
26474;SDS011;14161;52.270;10.334;2023-08-17T00:16:24;3.08;;;1.10;;
26474;SDS011;14161;52.270;10.334;2023-08-17T00:18:50;2.60;;;1.45;;
26474;SDS011;14161;52.270;10.334;2023-08-17T00:21:15;3.38;;;1.30;;
26474;SDS011;14161;52.270;10.334;2023-08-17T00:23:41;3.70;;;1.33;;
26474;SDS011;14161;52.270;10.334;2023-08-17T00:26:07;1.83;;;1.10;;
26474;SDS011;14161;52.270;10.334;2023-08-17T00:28:33;1.70;;;1.30;;
26474;SDS011;14161;52.270;10.334;2023-08-17T00:31:02;1.60;;;1.23;;
26474;SDS011;14161;52.270;10.334;2023-08-17T00:33:28;2.17;;;1.50;;
26474;SDS011;14161;52.270;10.334;2023-08-17T00:35:55;5.38;;;1.40;;
26474;SDS011;14161;52.270;10.334;2023-08-17T00:38:20;3.70;;;1.65;;
26474;SDS011;14161;52.270;10.334;2023-08-17T00:40:46;2.58;;;1.35;;
26474;SDS011;14161;52.270;10.334;2023-08-17T00:43:12;2.53;;;1.48;;
26474;SDS011;14161;52.270;10.334;2023-08-17T00:45:37;1.80;;;1.35;;
26474;SDS011;14161;52.270;10.334;2023-08-17T00:48:03;2.72;;;1.60;;
26474;SDS011;14161;52.270;10.334;2023-08-17T00:50:32;2.38;;;1.50;;
26474;SDS011;14161;52.270;10.334;2023-08-17T00:52:59;3.17;;;1.10;;
26474;SDS011;14161;52.270;10.334;2023-08-17T00:55:26;4.78;;;1.35;;
26474;SDS011;14161;52.270;10.334;2023-08-17T00:57:53;2.97;;;1.20;;
26474;SDS011;14161;52.270;10.334;2023-08-17T01:00:19;2.60;;;1.23;;
26474;SDS011;14161;52.270;10.334;2023-08-17T01:02:45;5.43;;;1.48;;
26474;SDS011;14161;52.270;10.334;2023-08-17T01:05:11;5.07;;;1.33;;
26474;SDS011;14161;52.270;10.334;2023-08-17T01:07:37;4.82;;;1.60;;
26474;SDS011;14161;52.270;10.334;2023-08-17T01:10:03;3.17;;;1.67;;
26474;SDS011;14161;52.270;10.334;2023-08-17T01:12:30;5.68;;;1.50;;
26474;SDS011;14161;52.270;10.334;2023-08-17T01:17:33;4.35;;;1.50;;
26474;SDS011;14161;52.270;10.334;2023-08-17T01:20:19;5.28;;;1.90;;
26474;SDS011;14161;52.270;10.334;2023-08-17T01:22:46;5.38;;;1.88;;
26474;SDS011;14161;52.270;10.334;2023-08-17T01:25:14;5.68;;;1.90;;
26474;SDS011;14161;52.270;10.334;2023-08-17T01:27:44;5.55;;;1.67;;
26474;SDS011;14161;52.270;10.334;2023-08-17T01:30:14;6.05;;;1.90;;
26474;SDS011;14161;52.270;10.334;2023-08-17T01:37:47;3.90;;;2.10;;
26474;SDS011;14161;52.270;10.334;2023-08-17T01:40:15;5.28;;;1.85;;
26474;SDS011;14161;52.270;10.334;2023-08-17T01:42:41;6.07;;;2.17;;
26474;SDS011;14161;52.270;10.334;2023-08-17T01:45:07;5.00;;;2.08;;
26474;SDS011;14161;52.270;10.334;2023-08-17T01:47:35;4.68;;;2.13;;
26474;SDS011;14161;52.270;10.334;2023-08-17T01:50:00;6.72;;;2.60;;
26474;SDS011;14161;52.270;10.334;2023-08-17T01:52:26;5.97;;;2.50;;
26474;SDS011;14161;52.270;10.334;2023-08-17T01:54:53;4.60;;;2.10;;
26474;SDS011;14161;52.270;10.334;2023-08-17T01:57:18;6.60;;;1.92;;
26474;SDS011;14161;52.270;10.334;2023-08-17T01:59:44;5.22;;;2.35;;
26474;SDS011;14161;52.270;10.334;2023-08-17T02:02:09;4.35;;;2.22;;
26474;SDS011;14161;52.270;10.334;2023-08-17T02:04:36;3.10;;;2.30;;
26474;SDS011;14161;52.270;10.334;2023-08-17T02:07:02;5.22;;;2.10;;
26474;SDS011;14161;52.270;10.334;2023-08-17T02:09:28;3.80;;;1.70;;
26474;SDS011;14161;52.270;10.334;2023-08-17T02:11:53;3.67;;;2.03;;
26474;SDS011;14161;52.270;10.334;2023-08-17T02:14:19;2.33;;;1.80;;
26474;SDS011;14161;52.270;10.334;2023-08-17T02:16:44;4.07;;;1.52;;
26474;SDS011;14161;52.270;10.334;2023-08-17T02:19:10;6.03;;;1.75;;
26474;SDS011;14161;52.270;10.334;2023-08-17T02:21:36;5.25;;;2.00;;
26474;SDS011;14161;52.270;10.334;2023-08-17T02:24:02;7.93;;;2.15;;
26474;SDS011;14161;52.270;10.334;2023-08-17T02:26:29;2.40;;;1.70;;
26474;SDS011;14161;52.270;10.334;2023-08-17T02:28:55;3.00;;;1.90;;
26474;SDS011;14161;52.270;10.334;2023-08-17T02:31:23;2.42;;;1.50;;
26474;SDS011;14161;52.270;10.334;2023-08-17T02:33:48;3.80;;;1.85;;
26474;SDS011;14161;52.270;10.334;2023-08-17T02:36:14;4.45;;;1.77;;
26474;SDS011;14161;52.270;10.334;2023-08-17T02:38:39;3.33;;;1.80;;
26474;SDS011;14161;52.270;10.334;2023-08-17T02:41:05;3.10;;;1.80;;
26474;SDS011;14161;52.270;10.334;2023-08-17T02:43:30;3.35;;;1.80;;
26474;SDS011;14161;52.270;10.334;2023-08-17T02:45:56;3.53;;;1.70;;
26474;SDS011;14161;52.270;10.334;2023-08-17T02:48:21;3.10;;;1.85;;
26474;SDS011;14161;52.270;10.334;2023-08-17T02:50:47;2.10;;;1.83;;
26474;SDS011;14161;52.270;10.334;2023-08-17T02:53:12;4.20;;;2.20;;
26474;SDS011;14161;52.270;10.334;2023-08-17T02:55:38;5.65;;;2.10;;
26474;SDS011;14161;52.270;10.334;2023-08-17T02:58:03;5.55;;;2.03;;
26474;SDS011;14161;52.270;10.334;2023-08-17T03:00:29;3.65;;;1.90;;
26474;SDS011;14161;52.270;10.334;2023-08-17T03:02:56;4.32;;;1.83;;
26474;SDS011;14161;52.270;10.334;2023-08-17T03:05:21;3.63;;;1.88;;
26474;SDS011;14161;52.270;10.334;2023-08-17T03:07:47;2.83;;;2.00;;
26474;SDS011;14161;52.270;10.334;2023-08-17T03:10:12;4.47;;;2.05;;
26474;SDS011;14161;52.270;10.334;2023-08-17T03:12:38;3.95;;;2.05;;
26474;SDS011;14161;52.270;10.334;2023-08-17T03:15:04;4.28;;;2.10;;
26474;SDS011;14161;52.270;10.334;2023-08-17T03:17:32;2.35;;;1.80;;
26474;SDS011;14161;52.270;10.334;2023-08-17T03:19:58;2.47;;;2.03;;
26474;SDS011;14161;52.270;10.334;2023-08-17T03:22:25;3.92;;;2.30;;
26474;SDS011;14161;52.270;10.334;2023-08-17T03:24:51;2.92;;;2.20;;
26474;SDS011;14161;52.270;10.334;2023-08-17T03:27:16;2.10;;;1.90;;
26474;SDS011;14161;52.270;10.334;2023-08-17T03:29:42;1.90;;;1.77;;
26474;SDS011;14161;52.270;10.334;2023-08-17T03:32:07;2.47;;;1.83;;
26474;SDS011;14161;52.270;10.334;2023-08-17T03:34:33;2.45;;;1.73;;
26474;SDS011;14161;52.270;10.334;2023-08-17T03:37:00;3.67;;;1.73;;
26474;SDS011;14161;52.270;10.334;2023-08-17T03:39:25;2.47;;;1.70;;
26474;SDS011;14161;52.270;10.334;2023-08-17T03:41:51;4.35;;;2.20;;
26474;SDS011;14161;52.270;10.334;2023-08-17T03:44:16;3.45;;;1.80;;
26474;SDS011;14161;52.270;10.334;2023-08-17T03:46:42;3.75;;;1.92;;
26474;SDS011;14161;52.270;10.334;2023-08-17T03:49:07;2.65;;;2.00;;
26474;SDS011;14161;52.270;10.334;2023-08-17T03:51:35;2.67;;;1.67;;
26474;SDS011;14161;52.270;10.334;2023-08-17T03:54:00;2.45;;;1.80;;
26474;SDS011;14161;52.270;10.334;2023-08-17T03:56:26;3.22;;;2.10;;
26474;SDS011;14161;52.270;10.334;2023-08-17T03:58:52;4.72;;;1.75;;
26474;SDS011;14161;52.270;10.334;2023-08-17T04:01:20;3.00;;;1.58;;
26474;SDS011;14161;52.270;10.334;2023-08-17T04:03:46;1.98;;;1.70;;
26474;SDS011;14161;52.270;10.334;2023-08-17T04:06:12;2.17;;;1.80;;
26474;SDS011;14161;52.270;10.334;2023-08-17T04:08:37;2.38;;;1.88;;
26474;SDS011;14161;52.270;10.334;2023-08-17T04:11:03;3.40;;;1.98;;
26474;SDS011;14161;52.270;10.334;2023-08-17T04:13:29;4.32;;;2.10;;
26474;SDS011;14161;52.270;10.334;2023-08-17T04:15:56;2.95;;;1.92;;
26474;SDS011;14161;52.270;10.334;2023-08-17T04:18:22;2.95;;;1.95;;
26474;SDS011;14161;52.270;10.334;2023-08-17T04:20:47;2.28;;;1.70;;
26474;SDS011;14161;52.270;10.334;2023-08-17T04:23:15;1.75;;;1.58;;
26474;SDS011;14161;52.270;10.334;2023-08-17T04:25:40;3.72;;;1.90;;
26474;SDS011;14161;52.270;10.334;2023-08-17T04:28:06;2.63;;;2.08;;
26474;SDS011;14161;52.270;10.334;2023-08-17T04:30:34;4.25;;;2.90;;
26474;SDS011;14161;52.270;10.334;2023-08-17T04:33:01;3.33;;;2.67;;
26474;SDS011;14161;52.270;10.334;2023-08-17T04:35:26;2.80;;;2.42;;
26474;SDS011;14161;52.270;10.334;2023-08-17T04:37:52;5.13;;;2.63;;
26474;SDS011;14161;52.270;10.334;2023-08-17T04:40:18;3.28;;;2.33;;
26474;SDS011;14161;52.270;10.334;2023-08-17T04:42:43;2.25;;;2.05;;
26474;SDS011;14161;52.270;10.334;2023-08-17T04:45:09;2.70;;;2.28;;
26474;SDS011;14161;52.270;10.334;2023-08-17T04:47:39;2.60;;;1.92;;
26474;SDS011;14161;52.270;10.334;2023-08-17T04:50:05;2.30;;;2.10;;
26474;SDS011;14161;52.270;10.334;2023-08-17T04:52:31;2.42;;;2.03;;
26474;SDS011;14161;52.270;10.334;2023-08-17T04:54:56;2.67;;;2.30;;
26474;SDS011;14161;52.270;10.334;2023-08-17T04:57:22;2.67;;;2.25;;
26474;SDS011;14161;52.270;10.334;2023-08-17T04:59:47;2.70;;;2.47;;
26474;SDS011;14161;52.270;10.334;2023-08-17T05:02:15;2.13;;;1.95;;
26474;SDS011;14161;52.270;10.334;2023-08-17T05:04:41;3.58;;;2.63;;
26474;SDS011;14161;52.270;10.334;2023-08-17T05:07:07;2.58;;;2.35;;
26474;SDS011;14161;52.270;10.334;2023-08-17T05:09:33;3.10;;;2.20;;
26474;SDS011;14161;52.270;10.334;2023-08-17T05:11:59;4.22;;;2.30;;
26474;SDS011;14161;52.270;10.334;2023-08-17T05:14:24;3.10;;;2.25;;
26474;SDS011;14161;52.270;10.334;2023-08-17T05:16:50;4.13;;;2.50;;
26474;SDS011;14161;52.270;10.334;2023-08-17T05:19:15;3.38;;;2.70;;
26474;SDS011;14161;52.270;10.334;2023-08-17T05:21:41;2.92;;;2.60;;
26474;SDS011;14161;52.270;10.334;2023-08-17T05:24:07;2.58;;;2.33;;
26474;SDS011;14161;52.270;10.334;2023-08-17T05:26:32;2.72;;;2.20;;
26474;SDS011;14161;52.270;10.334;2023-08-17T05:28:58;3.33;;;2.47;;
26474;SDS011;14161;52.270;10.334;2023-08-17T05:31:24;2.40;;;2.20;;
26474;SDS011;14161;52.270;10.334;2023-08-17T05:33:51;2.90;;;2.50;;
26474;SDS011;14161;52.270;10.334;2023-08-17T05:36:17;3.05;;;2.58;;
26474;SDS011;14161;52.270;10.334;2023-08-17T05:38:43;4.43;;;2.40;;
26474;SDS011;14161;52.270;10.334;2023-08-17T05:41:08;3.13;;;2.30;;
26474;SDS011;14161;52.270;10.334;2023-08-17T05:43:34;4.00;;;2.00;;
26474;SDS011;14161;52.270;10.334;2023-08-17T05:45:59;2.63;;;2.05;;
26474;SDS011;14161;52.270;10.334;2023-08-17T05:48:25;3.05;;;2.10;;
26474;SDS011;14161;52.270;10.334;2023-08-17T05:50:50;3.53;;;2.30;;
26474;SDS011;14161;52.270;10.334;2023-08-17T05:53:16;2.67;;;1.80;;
26474;SDS011;14161;52.270;10.334;2023-08-17T05:55:41;2.20;;;1.98;;
26474;SDS011;14161;52.270;10.334;2023-08-17T05:58:07;2.42;;;2.20;;
26474;SDS011;14161;52.270;10.334;2023-08-17T06:00:32;1.67;;;1.58;;
26474;SDS011;14161;52.270;10.334;2023-08-17T06:02:58;1.88;;;1.67;;
26474;SDS011;14161;52.270;10.334;2023-08-17T06:05:26;1.52;;;1.42;;
26474;SDS011;14161;52.270;10.334;2023-08-17T06:07:54;3.58;;;1.63;;
26474;SDS011;14161;52.270;10.334;2023-08-17T06:10:19;3.08;;;1.38;;
26474;SDS011;14161;52.270;10.334;2023-08-17T06:12:45;1.52;;;1.38;;
26474;SDS011;14161;52.270;10.334;2023-08-17T06:15:13;1.80;;;1.60;;
26474;SDS011;14161;52.270;10.334;2023-08-17T06:17:38;1.52;;;1.42;;
26474;SDS011;14161;52.270;10.334;2023-08-17T06:20:04;1.92;;;1.67;;
26474;SDS011;14161;52.270;10.334;2023-08-17T06:22:30;1.65;;;1.55;;
26474;SDS011;14161;52.270;10.334;2023-08-17T06:24:55;1.30;;;1.20;;
26474;SDS011;14161;52.270;10.334;2023-08-17T06:27:21;1.33;;;1.15;;
26474;SDS011;14161;52.270;10.334;2023-08-17T06:29:46;1.10;;;1.00;;
26474;SDS011;14161;52.270;10.334;2023-08-17T06:32:12;1.75;;;1.35;;
26474;SDS011;14161;52.270;10.334;2023-08-17T06:34:37;1.20;;;1.15;;
26474;SDS011;14161;52.270;10.334;2023-08-17T06:37:03;1.20;;;1.10;;
26474;SDS011;14161;52.270;10.334;2023-08-17T06:39:28;2.67;;;1.10;;
26474;SDS011;14161;52.270;10.334;2023-08-17T06:41:54;1.52;;;1.33;;
26474;SDS011;14161;52.270;10.334;2023-08-17T06:44:20;1.23;;;1.13;;
26474;SDS011;14161;52.270;10.334;2023-08-17T06:46:45;1.50;;;1.00;;
26474;SDS011;14161;52.270;10.334;2023-08-17T06:49:11;1.38;;;1.27;;
26474;SDS011;14161;52.270;10.334;2023-08-17T06:51:37;1.58;;;1.13;;
26474;SDS011;14161;52.270;10.334;2023-08-17T06:54:03;1.20;;;1.00;;
26474;SDS011;14161;52.270;10.334;2023-08-17T06:56:29;2.08;;;1.40;;
26474;SDS011;14161;52.270;10.334;2023-08-17T06:58:55;1.20;;;1.05;;
26474;SDS011;14161;52.270;10.334;2023-08-17T07:01:20;1.15;;;1.05;;
26474;SDS011;14161;52.270;10.334;2023-08-17T07:03:46;1.52;;;1.17;;
26474;SDS011;14161;52.270;10.334;2023-08-17T07:06:13;1.73;;;1.20;;
26474;SDS011;14161;52.270;10.334;2023-08-17T07:08:38;1.08;;;1.00;;
26474;SDS011;14161;52.270;10.334;2023-08-17T07:11:04;1.52;;;1.20;;
26474;SDS011;14161;52.270;10.334;2023-08-17T07:13:30;1.33;;;1.20;;
26474;SDS011;14161;52.270;10.334;2023-08-17T07:15:56;1.73;;;1.10;;
26474;SDS011;14161;52.270;10.334;2023-08-17T07:18:21;1.00;;;1.00;;
26474;SDS011;14161;52.270;10.334;2023-08-17T07:20:47;1.27;;;1.17;;
26474;SDS011;14161;52.270;10.334;2023-08-17T07:23:12;1.45;;;1.20;;
26474;SDS011;14161;52.270;10.334;2023-08-17T07:25:38;1.05;;;0.98;;
26474;SDS011;14161;52.270;10.334;2023-08-17T07:28:03;1.25;;;1.17;;
26474;SDS011;14161;52.270;10.334;2023-08-17T07:30:29;0.85;;;0.85;;
26474;SDS011;14161;52.270;10.334;2023-08-17T07:32:54;2.58;;;1.50;;
26474;SDS011;14161;52.270;10.334;2023-08-17T07:35:20;1.08;;;1.02;;
26474;SDS011;14161;52.270;10.334;2023-08-17T07:37:45;1.83;;;1.40;;
26474;SDS011;14161;52.270;10.334;2023-08-17T07:40:11;1.23;;;1.13;;
26474;SDS011;14161;52.270;10.334;2023-08-17T07:42:36;1.40;;;1.30;;
26474;SDS011;14161;52.270;10.334;2023-08-17T07:45:02;2.40;;;1.42;;
26474;SDS011;14161;52.270;10.334;2023-08-17T07:47:31;1.55;;;1.40;;
26474;SDS011;14161;52.270;10.334;2023-08-17T07:49:56;1.50;;;1.40;;
26474;SDS011;14161;52.270;10.334;2023-08-17T07:52:23;1.85;;;1.60;;
26474;SDS011;14161;52.270;10.334;2023-08-17T07:54:48;2.25;;;1.63;;
26474;SDS011;14161;52.270;10.334;2023-08-17T07:57:14;1.60;;;1.50;;
26474;SDS011;14161;52.270;10.334;2023-08-17T07:59:39;1.30;;;1.20;;
26474;SDS011;14161;52.270;10.334;2023-08-17T08:02:05;1.35;;;1.25;;
26474;SDS011;14161;52.270;10.334;2023-08-17T08:04:30;2.25;;;1.50;;
26474;SDS011;14161;52.270;10.334;2023-08-17T08:06:56;1.20;;;1.08;;
26474;SDS011;14161;52.270;10.334;2023-08-17T08:09:21;1.58;;;1.20;;
26474;SDS011;14161;52.270;10.334;2023-08-17T08:11:47;1.42;;;1.20;;
26474;SDS011;14161;52.270;10.334;2023-08-17T08:14:13;2.03;;;1.20;;
26474;SDS011;14161;52.270;10.334;2023-08-17T08:16:39;3.10;;;1.40;;
26474;SDS011;14161;52.270;10.334;2023-08-17T08:19:04;1.80;;;1.70;;
26474;SDS011;14161;52.270;10.334;2023-08-17T08:21:30;1.30;;;1.20;;
26474;SDS011;14161;52.270;10.334;2023-08-17T08:23:56;1.52;;;1.40;;
26474;SDS011;14161;52.270;10.334;2023-08-17T08:26:21;1.50;;;1.40;;
26474;SDS011;14161;52.270;10.334;2023-08-17T08:28:46;1.60;;;1.50;;
26474;SDS011;14161;52.270;10.334;2023-08-17T08:31:12;1.42;;;1.25;;
26474;SDS011;14161;52.270;10.334;2023-08-17T08:33:37;1.63;;;1.50;;
26474;SDS011;14161;52.270;10.334;2023-08-17T08:36:03;1.55;;;1.30;;
26474;SDS011;14161;52.270;10.334;2023-08-17T08:38:31;1.30;;;1.20;;
26474;SDS011;14161;52.270;10.334;2023-08-17T08:40:56;1.35;;;1.25;;
26474;SDS011;14161;52.270;10.334;2023-08-17T08:43:22;1.45;;;1.35;;
26474;SDS011;14161;52.270;10.334;2023-08-17T08:45:48;1.33;;;1.23;;
26474;SDS011;14161;52.270;10.334;2023-08-17T08:48:14;1.77;;;1.13;;
26474;SDS011;14161;52.270;10.334;2023-08-17T08:50:41;1.00;;;1.00;;
26474;SDS011;14161;52.270;10.334;2023-08-17T08:53:13;1.55;;;1.20;;
26474;SDS011;14161;52.270;10.334;2023-08-17T08:55:41;1.50;;;1.40;;
26474;SDS011;14161;52.270;10.334;2023-08-17T08:58:12;1.60;;;1.35;;
26474;SDS011;14161;52.270;10.334;2023-08-17T09:00:40;1.40;;;1.30;;
26474;SDS011;14161;52.270;10.334;2023-08-17T09:03:06;1.13;;;1.02;;
26474;SDS011;14161;52.270;10.334;2023-08-17T09:05:32;1.17;;;1.08;;
26474;SDS011;14161;52.270;10.334;2023-08-17T09:07:59;1.15;;;1.05;;
26474;SDS011;14161;52.270;10.334;2023-08-17T09:10:25;3.03;;;1.27;;
26474;SDS011;14161;52.270;10.334;2023-08-17T09:12:51;1.15;;;1.02;;
26474;SDS011;14161;52.270;10.334;2023-08-17T09:15:16;1.60;;;1.05;;
26474;SDS011;14161;52.270;10.334;2023-08-17T09:17:42;1.30;;;1.20;;
26474;SDS011;14161;52.270;10.334;2023-08-17T09:20:08;1.33;;;1.23;;
26474;SDS011;14161;52.270;10.334;2023-08-17T09:22:41;1.08;;;1.08;;
26474;SDS011;14161;52.270;10.334;2023-08-17T09:25:07;1.10;;;1.10;;
26474;SDS011;14161;52.270;10.334;2023-08-17T09:27:34;1.58;;;1.15;;
26474;SDS011;14161;52.270;10.334;2023-08-17T09:30:01;2.17;;;1.38;;
26474;SDS011;14161;52.270;10.334;2023-08-17T09:32:35;1.30;;;1.20;;
26474;SDS011;14161;52.270;10.334;2023-08-17T09:35:04;1.35;;;1.17;;
26474;SDS011;14161;52.270;10.334;2023-08-17T09:37:31;2.05;;;1.58;;
26474;SDS011;14161;52.270;10.334;2023-08-17T09:39:57;1.50;;;1.40;;
26474;SDS011;14161;52.270;10.334;2023-08-17T09:42:22;1.65;;;1.55;;
26474;SDS011;14161;52.270;10.334;2023-08-17T09:44:50;1.77;;;1.63;;
26474;SDS011;14161;52.270;10.334;2023-08-17T09:47:19;1.42;;;1.30;;
26474;SDS011;14161;52.270;10.334;2023-08-17T09:49:49;1.92;;;1.70;;
26474;SDS011;14161;52.270;10.334;2023-08-17T09:52:19;2.00;;;1.67;;
26474;SDS011;14161;52.270;10.334;2023-08-17T09:54:45;1.95;;;1.75;;
26474;SDS011;14161;52.270;10.334;2023-08-17T09:57:12;3.03;;;1.92;;
26474;SDS011;14161;52.270;10.334;2023-08-17T09:59:38;2.00;;;1.80;;
26474;SDS011;14161;52.270;10.334;2023-08-17T10:02:03;2.67;;;2.00;;
26474;SDS011;14161;52.270;10.334;2023-08-17T10:04:42;1.83;;;1.73;;
26474;SDS011;14161;52.270;10.334;2023-08-17T10:07:08;1.92;;;1.77;;
26474;SDS011;14161;52.270;10.334;2023-08-17T10:09:36;2.38;;;2.00;;
26474;SDS011;14161;52.270;10.334;2023-08-17T10:12:10;2.03;;;1.90;;
26474;SDS011;14161;52.270;10.334;2023-08-17T10:14:39;2.55;;;2.33;;
26474;SDS011;14161;52.270;10.334;2023-08-17T10:17:11;3.35;;;2.55;;
26474;SDS011;14161;52.270;10.334;2023-08-17T10:19:45;4.18;;;2.40;;
26474;SDS011;14161;52.270;10.334;2023-08-17T10:22:23;2.50;;;2.30;;
26474;SDS011;14161;52.270;10.334;2023-08-17T10:24:54;3.10;;;2.80;;
26474;SDS011;14161;52.270;10.334;2023-08-17T10:27:20;3.00;;;2.38;;
26474;SDS011;14161;52.270;10.334;2023-08-17T10:29:46;4.57;;;2.90;;
26474;SDS011;14161;52.270;10.334;2023-08-17T10:32:12;3.35;;;2.70;;
26474;SDS011;14161;52.270;10.334;2023-08-17T10:34:38;3.55;;;2.72;;
26474;SDS011;14161;52.270;10.334;2023-08-17T10:37:04;3.00;;;2.45;;
26474;SDS011;14161;52.270;10.334;2023-08-17T10:39:30;3.58;;;2.85;;
26474;SDS011;14161;52.270;10.334;2023-08-17T10:41:56;3.97;;;2.92;;
26474;SDS011;14161;52.270;10.334;2023-08-17T10:47:20;3.55;;;2.33;;
26474;SDS011;14161;52.270;10.334;2023-08-17T10:49:50;2.75;;;2.55;;
26474;SDS011;14161;52.270;10.334;2023-08-17T10:52:17;3.15;;;2.58;;
26474;SDS011;14161;52.270;10.334;2023-08-17T10:54:50;2.65;;;2.45;;
26474;SDS011;14161;52.270;10.334;2023-08-17T11:02:33;2.95;;;2.47;;
26474;SDS011;14161;52.270;10.334;2023-08-17T11:04:58;4.07;;;2.38;;
26474;SDS011;14161;52.270;10.334;2023-08-17T11:07:25;3.25;;;2.60;;
26474;SDS011;14161;52.270;10.334;2023-08-17T11:09:53;3.55;;;2.55;;
26474;SDS011;14161;52.270;10.334;2023-08-17T11:12:25;3.58;;;2.70;;
26474;SDS011;14161;52.270;10.334;2023-08-17T11:14:51;4.38;;;3.00;;
26474;SDS011;14161;52.270;10.334;2023-08-17T11:17:20;5.22;;;3.22;;
26474;SDS011;14161;52.270;10.334;2023-08-17T11:19:45;4.65;;;3.28;;
26474;SDS011;14161;52.270;10.334;2023-08-17T11:22:11;3.63;;;3.15;;
26474;SDS011;14161;52.270;10.334;2023-08-17T11:24:37;3.83;;;3.03;;
26474;SDS011;14161;52.270;10.334;2023-08-17T11:27:05;4.72;;;3.25;;
26474;SDS011;14161;52.270;10.334;2023-08-17T11:29:31;5.50;;;3.65;;
26474;SDS011;14161;52.270;10.334;2023-08-17T11:31:57;4.05;;;3.10;;
26474;SDS011;14161;52.270;10.334;2023-08-17T11:34:23;5.57;;;3.72;;
26474;SDS011;14161;52.270;10.334;2023-08-17T11:36:48;5.22;;;3.25;;
26474;SDS011;14161;52.270;10.334;2023-08-17T11:39:14;5.50;;;3.55;;
26474;SDS011;14161;52.270;10.334;2023-08-17T11:41:39;7.07;;;4.50;;
26474;SDS011;14161;52.270;10.334;2023-08-17T11:44:05;5.63;;;3.83;;
26474;SDS011;14161;52.270;10.334;2023-08-17T11:46:31;8.13;;;4.15;;
26474;SDS011;14161;52.270;10.334;2023-08-17T11:49:00;6.45;;;4.15;;
26474;SDS011;14161;52.270;10.334;2023-08-17T11:51:29;4.63;;;3.42;;
26474;SDS011;14161;52.270;10.334;2023-08-17T11:54:00;5.95;;;4.63;;
26474;SDS011;14161;52.270;10.334;2023-08-17T11:56:28;6.30;;;4.35;;
26474;SDS011;14161;52.270;10.334;2023-08-17T11:58:53;8.57;;;5.13;;
26474;SDS011;14161;52.270;10.334;2023-08-17T12:01:19;8.07;;;5.10;;
26474;SDS011;14161;52.270;10.334;2023-08-17T12:03:44;8.30;;;5.40;;
26474;SDS011;14161;52.270;10.334;2023-08-17T12:06:10;10.15;;;5.55;;
26474;SDS011;14161;52.270;10.334;2023-08-17T12:08:37;8.05;;;6.07;;
26474;SDS011;14161;52.270;10.334;2023-08-17T12:11:03;10.85;;;6.00;;
26474;SDS011;14161;52.270;10.334;2023-08-17T12:13:29;9.27;;;5.78;;
26474;SDS011;14161;52.270;10.334;2023-08-17T12:15:57;9.68;;;5.47;;
26474;SDS011;14161;52.270;10.334;2023-08-17T12:18:24;10.13;;;6.05;;
26474;SDS011;14161;52.270;10.334;2023-08-17T12:20:53;9.68;;;5.90;;
26474;SDS011;14161;52.270;10.334;2023-08-17T12:23:19;9.48;;;6.15;;
26474;SDS011;14161;52.270;10.334;2023-08-17T12:25:45;12.00;;;5.95;;
26474;SDS011;14161;52.270;10.334;2023-08-17T12:28:13;9.60;;;5.80;;
26474;SDS011;14161;52.270;10.334;2023-08-17T12:30:39;11.38;;;5.90;;
26474;SDS011;14161;52.270;10.334;2023-08-17T12:33:09;10.30;;;6.40;;
26474;SDS011;14161;52.270;10.334;2023-08-17T12:35:35;9.88;;;5.85;;
26474;SDS011;14161;52.270;10.334;2023-08-17T12:38:00;8.93;;;6.15;;
26474;SDS011;14161;52.270;10.334;2023-08-17T12:40:26;8.27;;;5.80;;
26474;SDS011;14161;52.270;10.334;2023-08-17T12:42:51;8.25;;;5.50;;
26474;SDS011;14161;52.270;10.334;2023-08-17T12:45:17;9.48;;;5.28;;
26474;SDS011;14161;52.270;10.334;2023-08-17T12:47:42;8.27;;;5.57;;
26474;SDS011;14161;52.270;10.334;2023-08-17T12:50:08;7.57;;;5.60;;
26474;SDS011;14161;52.270;10.334;2023-08-17T12:52:34;9.38;;;5.68;;
26474;SDS011;14161;52.270;10.334;2023-08-17T12:54:59;8.90;;;5.45;;
26474;SDS011;14161;52.270;10.334;2023-08-17T12:57:25;8.10;;;5.20;;
26474;SDS011;14161;52.270;10.334;2023-08-17T12:59:51;8.90;;;5.55;;
26474;SDS011;14161;52.270;10.334;2023-08-17T13:02:17;9.88;;;5.38;;
26474;SDS011;14161;52.270;10.334;2023-08-17T13:04:43;7.85;;;5.47;;
26474;SDS011;14161;52.270;10.334;2023-08-17T13:07:09;7.88;;;5.47;;
26474;SDS011;14161;52.270;10.334;2023-08-17T13:09:34;9.80;;;6.03;;
26474;SDS011;14161;52.270;10.334;2023-08-17T13:12:00;8.27;;;5.60;;
26474;SDS011;14161;52.270;10.334;2023-08-17T13:14:25;11.18;;;5.65;;
26474;SDS011;14161;52.270;10.334;2023-08-17T13:16:51;10.35;;;5.32;;
26474;SDS011;14161;52.270;10.334;2023-08-17T13:19:17;10.95;;;5.47;;
26474;SDS011;14161;52.270;10.334;2023-08-17T13:21:43;9.05;;;5.45;;
26474;SDS011;14161;52.270;10.334;2023-08-17T13:24:08;8.10;;;5.50;;
26474;SDS011;14161;52.270;10.334;2023-08-17T13:26:34;9.73;;;5.45;;
26474;SDS011;14161;52.270;10.334;2023-08-17T13:29:00;7.88;;;4.95;;
26474;SDS011;14161;52.270;10.334;2023-08-17T13:31:25;7.65;;;5.22;;
26474;SDS011;14161;52.270;10.334;2023-08-17T13:33:51;11.52;;;6.20;;
26474;SDS011;14161;52.270;10.334;2023-08-17T13:36:17;9.18;;;5.55;;
26474;SDS011;14161;52.270;10.334;2023-08-17T13:38:43;7.43;;;5.63;;
26474;SDS011;14161;52.270;10.334;2023-08-17T13:41:10;7.85;;;5.53;;
26474;SDS011;14161;52.270;10.334;2023-08-17T13:43:35;7.63;;;5.15;;
26474;SDS011;14161;52.270;10.334;2023-08-17T13:46:01;9.82;;;5.80;;
26474;SDS011;14161;52.270;10.334;2023-08-17T13:48:27;7.70;;;5.80;;
26474;SDS011;14161;52.270;10.334;2023-08-17T13:50:52;7.85;;;5.90;;
26474;SDS011;14161;52.270;10.334;2023-08-17T13:53:17;10.25;;;5.95;;
26474;SDS011;14161;52.270;10.334;2023-08-17T13:55:43;10.48;;;6.28;;
26474;SDS011;14161;52.270;10.334;2023-08-17T13:58:08;9.77;;;5.88;;
26474;SDS011;14161;52.270;10.334;2023-08-17T14:00:35;9.98;;;6.60;;
26474;SDS011;14161;52.270;10.334;2023-08-17T14:03:01;10.85;;;6.88;;
26474;SDS011;14161;52.270;10.334;2023-08-17T14:05:27;8.90;;;5.63;;
26474;SDS011;14161;52.270;10.334;2023-08-17T14:07:52;10.15;;;7.03;;
26474;SDS011;14161;52.270;10.334;2023-08-17T14:10:18;8.68;;;5.15;;
26474;SDS011;14161;52.270;10.334;2023-08-17T14:12:43;11.95;;;5.78;;
26474;SDS011;14161;52.270;10.334;2023-08-17T14:15:09;9.60;;;5.28;;
26474;SDS011;14161;52.270;10.334;2023-08-17T14:17:53;8.35;;;4.97;;
26474;SDS011;14161;52.270;10.334;2023-08-17T14:20:18;9.48;;;5.65;;
26474;SDS011;14161;52.270;10.334;2023-08-17T14:22:44;9.77;;;4.97;;
26474;SDS011;14161;52.270;10.334;2023-08-17T14:25:09;8.70;;;5.03;;
26474;SDS011;14161;52.270;10.334;2023-08-17T14:27:35;7.25;;;5.10;;
26474;SDS011;14161;52.270;10.334;2023-08-17T14:30:00;6.97;;;4.63;;
26474;SDS011;14161;52.270;10.334;2023-08-17T14:32:27;6.07;;;4.60;;
26474;SDS011;14161;52.270;10.334;2023-08-17T14:34:54;9.10;;;5.38;;
26474;SDS011;14161;52.270;10.334;2023-08-17T14:37:19;9.15;;;5.03;;
26474;SDS011;14161;52.270;10.334;2023-08-17T14:39:45;6.22;;;4.40;;
26474;SDS011;14161;52.270;10.334;2023-08-17T14:42:11;9.05;;;4.75;;
26474;SDS011;14161;52.270;10.334;2023-08-17T14:44:37;9.23;;;4.65;;